Time;durP1;ratioP1;P1;durP2;ratioP2;P2;SDS_P1;SDS_P2;PMS_P1;PMS_P2;Temp;Humidity;BMP_temperature;BMP_pressure;BME280_temperature;BME280_humidity;BME280_pressure;Samples;Min_cycle;Max_cycle;Signal;HPM_P1;HPM_P2
2022/05/21 00:00:06;;;;;;;14.47;9.97;;;;;;;;;;5075587;28;20461;-75
2022/05/21 00:02:32;;;;;;;19.63;10.13;;;;;;;;;;5074352;28;20414;-75
2022/05/21 00:04:59;;;;;;;10.80;9.63;;;;;;;;;;5073830;28;20422;-74
2022/05/21 00:07:25;;;;;;;14.87;9.40;;;;;;;;;;5075494;28;20499;-75
2022/05/21 00:09:51;;;;;;;13.90;9.27;;;;;;;;;;5075428;28;20545;-76
2022/05/21 00:12:17;;;;;;;11.57;9.43;;;;;;;;;;5075354;28;20447;-76
2022/05/21 00:14:43;;;;;;;13.50;9.20;;;;;;;;;;5074988;28;20495;-77
2022/05/21 00:17:09;;;;;;;14.77;10.43;;;;;;;;;;5075359;28;20407;-75
2022/05/21 00:19:35;;;;;;;11.27;9.13;;;;;;;;;;5073762;28;20427;-76
2022/05/21 00:22:01;;;;;;;12.70;8.87;;;;;;;;;;5080578;28;20476;-76
2022/05/21 00:24:28;;;;;;;13.23;10.17;;;;;;;;;;5074197;28;20443;-76
2022/05/21 00:26:54;;;;;;;14.87;11.07;;;;;;;;;;5075028;28;20411;-76
2022/05/21 00:29:20;;;;;;;13.50;10.03;;;;;;;;;;5075103;28;20426;-76
2022/05/21 00:31:47;;;;;;;15.63;11.67;;;;;;;;;;5073900;28;20435;-75
2022/05/21 00:34:13;;;;;;;11.87;10.67;;;;;;;;;;5074360;28;20775;-76
2022/05/21 00:36:39;;;;;;;13.50;10.17;;;;;;;;;;5074887;28;20770;-74
2022/05/21 00:39:05;;;;;;;12.40;10.70;;;;;;;;;;5075330;28;20419;-74
2022/05/21 00:41:31;;;;;;;16.23;11.83;;;;;;;;;;5074821;28;20821;-75
2022/05/21 00:44:02;;;;;;;11.27;9.90;;;;;;;;;;5074551;28;20431;-77
2022/05/21 00:46:47;;;;;;;12.73;11.40;;;;;;;;;;5073731;28;20506;-76
2022/05/21 00:49:19;;;;;;;12.10;10.30;;;;;;;;;;5074016;28;20463;-75
2022/05/21 00:51:48;;;;;;;13.27;11.47;;;;;;;;;;5086901;28;20385;-75
2022/05/21 00:54:16;;;;;;;12.27;10.60;;;;;;;;;;5094518;28;20818;-77
2022/05/21 00:56:51;;;;;;;15.37;11.57;;;;;;;;;;5094666;28;20382;-77
2022/05/21 01:02:03;;;;;;;15.23;11.70;;;;;;;;;;5095666;28;20517;-75
2022/05/21 01:04:31;;;;;;;13.77;10.70;;;;;;;;;;5094330;28;20422;-76
2022/05/21 01:06:59;;;;;;;16.27;12.67;;;;;;;;;;5094930;28;20403;-75
2022/05/21 01:09:25;;;;;;;14.53;11.70;;;;;;;;;;5095178;28;20436;-76
2022/05/21 01:11:51;;;;;;;15.45;10.70;;;;;;;;;;5094806;28;20489;-75
2022/05/21 01:14:20;;;;;;;18.15;11.20;;;;;;;;;;5094038;28;20199;-73
2022/05/21 01:16:46;;;;;;;14.07;10.27;;;;;;;;;;5092966;28;20184;-76
2022/05/21 01:19:13;;;;;;;14.65;10.32;;;;;;;;;;5077617;28;20438;-75
2022/05/21 01:21:39;;;;;;;16.87;12.00;;;;;;;;;;5076935;28;20192;-75
2022/05/21 01:24:09;;;;;;;15.18;11.40;;;;;;;;;;5084690;28;20448;-75
2022/05/21 01:26:36;;;;;;;22.70;11.50;;;;;;;;;;5073615;28;20181;-76
2022/05/21 01:29:04;;;;;;;19.10;11.85;;;;;;;;;;5073089;28;20455;-77
2022/05/21 01:31:32;;;;;;;14.85;10.88;;;;;;;;;;5073491;28;20197;-77
2022/05/21 01:33:59;;;;;;;14.70;9.63;;;;;;;;;;5073395;28;20547;-76
2022/05/21 01:36:25;;;;;;;11.00;8.20;;;;;;;;;;5073966;28;20540;-76
2022/05/21 01:38:51;;;;;;;16.52;8.63;;;;;;;;;;5073998;28;20422;-75
2022/05/21 01:41:17;;;;;;;13.10;9.30;;;;;;;;;;5073929;28;20196;-74
2022/05/21 01:46:29;;;;;;;15.05;8.80;;;;;;;;;;5072506;28;20438;-76
2022/05/21 01:48:55;;;;;;;11.75;9.07;;;;;;;;;;5073660;28;20567;-75
2022/05/21 01:51:21;;;;;;;11.40;7.35;;;;;;;;;;5081011;28;20589;-77
2022/05/21 01:53:47;;;;;;;12.90;8.63;;;;;;;;;;5088148;28;20208;-76
2022/05/21 01:56:14;;;;;;;11.63;8.88;;;;;;;;;;5093349;28;20403;-76
2022/05/21 01:58:40;;;;;;;7.15;6.30;;;;;;;;;;5093273;28;20173;-76
2022/05/21 02:01:07;;;;;;;7.33;6.20;;;;;;;;;;5093363;28;20172;-75
2022/05/21 02:03:33;;;;;;;8.55;6.93;;;;;;;;;;5093165;28;20426;-76
2022/05/21 02:05:59;;;;;;;7.90;6.03;;;;;;;;;;5093557;28;20207;-76
2022/05/21 02:08:25;;;;;;;8.80;6.80;;;;;;;;;;5093434;28;20204;-77
2022/05/21 02:10:52;;;;;;;10.88;5.60;;;;;;;;;;5093495;28;20417;-77
2022/05/21 02:13:20;;;;;;;10.73;5.03;;;;;;;;;;5092801;28;20172;-76
2022/05/21 02:15:46;;;;;;;9.20;5.20;;;;;;;;;;5088520;28;20773;-76
2022/05/21 02:18:13;;;;;;;5.18;4.53;;;;;;;;;;5073048;28;20435;-74
2022/05/21 02:20:39;;;;;;;6.87;4.40;;;;;;;;;;5083378;28;20264;-77
2022/05/21 02:23:05;;;;;;;6.33;4.60;;;;;;;;;;5074292;28;20973;-76
2022/05/21 02:25:31;;;;;;;5.20;4.00;;;;;;;;;;5073241;28;20435;-76
2022/05/21 02:27:57;;;;;;;7.65;4.95;;;;;;;;;;5072669;28;20399;-77
2022/05/21 02:30:23;;;;;;;6.57;4.00;;;;;;;;;;5072958;28;20592;-76
2022/05/21 02:32:49;;;;;;;8.35;4.53;;;;;;;;;;5071683;28;20455;-75
2022/05/21 02:35:16;;;;;;;6.23;4.00;;;;;;;;;;5072666;28;20200;-74
2022/05/21 02:40:26;;;;;;;8.60;3.57;;;;;;;;;;5073205;28;20423;-75
2022/05/21 02:42:54;;;;;;;4.90;3.70;;;;;;;;;;5072669;28;20406;-77
2022/05/21 02:45:22;;;;;;;8.25;3.83;;;;;;;;;;5072754;28;20422;-75
2022/05/21 02:47:48;;;;;;;6.07;3.50;;;;;;;;;;5071476;28;20676;-76
2022/05/21 02:50:16;;;;;;;8.37;3.80;;;;;;;;;;5073064;28;20949;-75
2022/05/21 02:52:42;;;;;;;8.00;3.33;;;;;;;;;;5072960;28;20770;-77
2022/05/21 02:55:10;;;;;;;5.93;3.13;;;;;;;;;;5071444;28;20280;-76
2022/05/21 02:57:36;;;;;;;3.85;2.70;;;;;;;;;;5075255;28;20177;-76
2022/05/21 03:00:06;;;;;;;5.97;3.33;;;;;;;;;;5075876;28;20192;-75
2022/05/21 03:02:32;;;;;;;7.15;3.10;;;;;;;;;;5089807;28;20591;-74
2022/05/21 03:04:58;;;;;;;8.98;3.15;;;;;;;;;;5096568;28;20197;-76
2022/05/21 03:07:24;;;;;;;4.30;2.30;;;;;;;;;;5096308;28;20180;-75
2022/05/21 03:12:34;;;;;;;5.60;3.10;;;;;;;;;;5095910;28;20249;-75
2022/05/21 03:15:00;;;;;;;8.32;2.90;;;;;;;;;;5096522;28;20430;-77
2022/05/21 03:17:27;;;;;;;6.17;2.90;;;;;;;;;;5096688;28;20538;-76
2022/05/21 03:19:53;;;;;;;6.50;2.60;;;;;;;;;;5095173;28;20437;-75
2022/05/21 03:22:19;;;;;;;4.40;2.80;;;;;;;;;;5096700;28;20410;-75
2022/05/21 03:24:45;;;;;;;7.23;2.60;;;;;;;;;;5096368;28;20495;-74
2022/05/21 03:27:11;;;;;;;5.63;2.60;;;;;;;;;;5096869;28;20806;-77
2022/05/21 03:29:37;;;;;;;8.83;3.07;;;;;;;;;;5093933;28;20496;-78
2022/05/21 03:32:04;;;;;;;12.00;2.97;;;;;;;;;;5080346;28;20444;-77
2022/05/21 03:34:30;;;;;;;3.80;2.20;;;;;;;;;;5086034;28;20431;-74
2022/05/21 03:36:57;;;;;;;9.80;2.70;;;;;;;;;;5075918;28;20403;-77
2022/05/21 03:39:23;;;;;;;4.17;2.03;;;;;;;;;;5075889;28;20434;-76
2022/05/21 03:41:49;;;;;;;8.47;2.40;;;;;;;;;;5074780;28;20434;-74
2022/05/21 03:44:15;;;;;;;5.37;2.17;;;;;;;;;;5075333;28;20423;-75
2022/05/21 03:46:41;;;;;;;8.07;2.13;;;;;;;;;;5076027;28;20445;-75
2022/05/21 03:49:07;;;;;;;6.07;2.10;;;;;;;;;;5076021;28;20437;-77
2022/05/21 03:51:34;;;;;;;6.70;2.00;;;;;;;;;;5075932;28;20430;-77
2022/05/21 03:54:00;;;;;;;8.73;2.20;;;;;;;;;;5075355;28;20431;-77
2022/05/21 03:56:26;;;;;;;11.80;2.20;;;;;;;;;;5075757;28;20412;-74
2022/05/21 03:58:52;;;;;;;4.13;2.40;;;;;;;;;;5075774;28;20378;-76
2022/05/21 04:01:17;;;;;;;8.17;2.47;;;;;;;;;;5084660;28;20500;-75
2022/05/21 04:03:43;;;;;;;8.83;2.83;;;;;;;;;;5081713;28;20432;-76
2022/05/21 04:06:11;;;;;;;6.43;2.07;;;;;;;;;;5074647;28;20444;-75
2022/05/21 04:08:37;;;;;;;3.00;1.60;;;;;;;;;;5074515;28;20479;-76
2022/05/21 04:11:03;;;;;;;2.70;1.50;;;;;;;;;;5075537;28;20419;-75
2022/05/21 04:13:29;;;;;;;6.20;2.13;;;;;;;;;;5075150;28;20440;-76
2022/05/21 04:15:55;;;;;;;3.83;2.33;;;;;;;;;;5075462;28;20900;-77
2022/05/21 04:18:21;;;;;;;6.93;2.40;;;;;;;;;;5073960;28;20417;-75
2022/05/21 04:20:47;;;;;;;13.77;1.80;;;;;;;;;;5075408;28;20441;-75
2022/05/21 04:23:13;;;;;;;2.73;1.90;;;;;;;;;;5075485;28;20382;-77
2022/05/21 04:25:39;;;;;;;4.13;1.80;;;;;;;;;;5076117;28;20447;-75
2022/05/21 04:28:05;;;;;;;7.80;1.80;;;;;;;;;;5075098;28;20970;-74
2022/05/21 04:30:35;;;;;;;5.33;1.73;;;;;;;;;;5075061;28;20775;-76
2022/05/21 04:33:01;;;;;;;9.17;2.10;;;;;;;;;;5085580;28;20470;-75
2022/05/21 04:38:13;;;;;;;5.80;2.53;;;;;;;;;;5095162;28;20477;-77
2022/05/21 04:40:39;;;;;;;7.77;1.97;;;;;;;;;;5094994;28;20497;-76
2022/05/21 04:43:05;;;;;;;4.63;2.00;;;;;;;;;;5094816;28;20498;-77
2022/05/21 04:45:31;;;;;;;4.50;2.37;;;;;;;;;;5095019;28;20401;-74
2022/05/21 04:47:57;;;;;;;6.97;2.37;;;;;;;;;;5095027;28;20413;-75
2022/05/21 04:50:23;;;;;;;5.80;2.10;;;;;;;;;;5094782;28;20490;-76
2022/05/21 04:52:49;;;;;;;5.57;2.13;;;;;;;;;;5094723;28;20883;-76
2022/05/21 04:55:15;;;;;;;7.33;2.10;;;;;;;;;;5076421;28;20481;-76
2022/05/21 04:57:41;;;;;;;6.40;2.00;;;;;;;;;;5094973;28;20559;-75
2022/05/21 05:00:07;;;;;;;5.30;2.50;;;;;;;;;;5086576;28;20560;-75
2022/05/21 05:02:33;;;;;;;2.80;1.73;;;;;;;;;;5115090;28;20413;-75
2022/05/21 05:04:59;;;;;;;5.23;2.07;;;;;;;;;;5114554;28;20441;-75
2022/05/21 05:07:25;;;;;;;6.80;2.00;;;;;;;;;;5115071;28;20413;-74
2022/05/21 05:09:51;;;;;;;9.17;2.73;;;;;;;;;;5115207;28;20461;-76
2022/05/21 05:12:17;;;;;;;5.03;2.30;;;;;;;;;;5114859;28;20435;-74
2022/05/21 05:14:43;;;;;;;4.00;2.20;;;;;;;;;;5112940;28;20515;-74
2022/05/21 05:17:11;;;;;;;6.40;2.40;;;;;;;;;;5114720;28;20398;-75
2022/05/21 05:19:37;;;;;;;5.33;2.17;;;;;;;;;;5114662;28;20412;-76
2022/05/21 05:22:04;;;;;;;9.03;2.30;;;;;;;;;;5114794;28;20380;-75
2022/05/21 05:24:30;;;;;;;4.23;2.07;;;;;;;;;;5114277;28;20529;-76
2022/05/21 05:26:56;;;;;;;6.20;2.73;;;;;;;;;;5114520;28;20388;-74
2022/05/21 05:29:22;;;;;;;8.03;2.23;;;;;;;;;;5109548;28;23318;-74
2022/05/21 05:31:48;;;;;;;5.17;2.37;;;;;;;;;;5073798;28;20864;-74
2022/05/21 05:34:14;;;;;;;5.53;2.47;;;;;;;;;;5073457;28;20889;-73
2022/05/21 05:36:40;;;;;;;10.23;2.67;;;;;;;;;;5073847;28;20494;-75
2022/05/21 05:39:06;;;;;;;12.70;2.87;;;;;;;;;;5072690;28;20449;-75
2022/05/21 05:41:32;;;;;;;7.90;2.23;;;;;;;;;;5073670;28;20415;-75
2022/05/21 05:43:58;;;;;;;5.57;2.17;;;;;;;;;;5073418;28;20514;-75
2022/05/21 05:46:24;;;;;;;10.73;2.77;;;;;;;;;;5073919;28;20407;-77
2022/05/21 05:48:50;;;;;;;8.23;4.30;;;;;;;;;;5089192;28;20426;-73
2022/05/21 05:51:17;;;;;;;6.03;2.10;;;;;;;;;;5073662;28;20428;-75
2022/05/21 05:53:44;;;;;;;6.57;2.37;;;;;;;;;;5088793;28;20473;-73
2022/05/21 05:56:10;;;;;;;7.67;3.37;;;;;;;;;;5087730;28;20457;-76
2022/05/21 06:01:22;;;;;;;5.37;2.30;;;;;;;;;;5105850;28;20442;-75
2022/05/21 06:03:49;;;;;;;8.17;2.30;;;;;;;;;;5078453;28;20446;-75
2022/05/21 06:06:15;;;;;;;8.00;2.30;;;;;;;;;;5073112;28;20904;-76
2022/05/21 06:08:41;;;;;;;5.57;2.83;;;;;;;;;;5072821;28;20437;-77
2022/05/21 06:11:07;;;;;;;9.17;3.77;;;;;;;;;;5072975;28;20786;-75
2022/05/21 06:13:33;;;;;;;6.30;3.10;;;;;;;;;;5072760;28;20419;-75
2022/05/21 06:16:00;;;;;;;8.53;3.10;;;;;;;;;;5073045;28;20412;-76
2022/05/21 06:18:26;;;;;;;17.70;3.27;;;;;;;;;;5071791;28;20496;-76
2022/05/21 06:20:52;;;;;;;7.43;2.83;;;;;;;;;;5072932;28;20385;-75
2022/05/21 06:23:19;;;;;;;6.30;3.33;;;;;;;;;;5072477;28;20416;-74
2022/05/21 06:25:45;;;;;;;15.00;3.40;;;;;;;;;;5075085;28;20518;-74
2022/05/21 06:28:11;;;;;;;7.17;3.10;;;;;;;;;;5072770;28;20430;-75
2022/05/21 06:30:38;;;;;;;7.90;2.70;;;;;;;;;;5072854;28;20433;-73
2022/05/21 06:33:16;;;;;;;8.47;3.53;;;;;;;;;;5071993;28;20961;-76
2022/05/21 06:35:42;;;;;;;8.60;3.40;;;;;;;;;;5072441;28;20415;-76
2022/05/21 06:38:08;;;;;;;6.73;3.27;;;;;;;;;;5072880;28;20861;-75
2022/05/21 06:40:34;;;;;;;5.60;3.60;;;;;;;;;;5072837;28;20399;-76
2022/05/21 06:43:00;;;;;;;8.83;3.13;;;;;;;;;;5071545;28;20777;-75
2022/05/21 06:45:36;;;;;;;10.07;3.70;;;;;;;;;;5072774;28;20782;-75
2022/05/21 06:48:06;;;;;;;9.03;3.80;;;;;;;;;;5072712;28;20870;-75
2022/05/21 06:50:33;;;;;;;10.47;4.13;;;;;;;;;;5072749;28;20461;-75
2022/05/21 06:52:59;;;;;;;9.83;3.40;;;;;;;;;;5072189;28;20415;-77
2022/05/21 06:55:25;;;;;;;8.03;4.30;;;;;;;;;;5080464;28;20853;-74
2022/05/21 06:57:52;;;;;;;12.90;3.00;;;;;;;;;;5092760;28;20419;-75
2022/05/21 07:00:18;;;;;;;8.67;3.53;;;;;;;;;;5073413;28;20397;-75
2022/05/21 07:02:44;;;;;;;9.50;3.00;;;;;;;;;;5072573;28;20804;-73
2022/05/21 07:07:56;;;;;;;9.87;3.23;;;;;;;;;;5072528;28;20498;-76
2022/05/21 07:10:24;;;;;;;12.20;3.60;;;;;;;;;;5072517;28;20416;-74
2022/05/21 07:12:50;;;;;;;7.73;3.17;;;;;;;;;;5071413;28;20408;-74
2022/05/21 07:15:17;;;;;;;8.73;3.10;;;;;;;;;;5071942;28;20419;-75
2022/05/21 07:17:44;;;;;;;7.27;3.37;;;;;;;;;;5071106;28;20385;-77
2022/05/21 07:20:11;;;;;;;12.20;3.60;;;;;;;;;;5072422;28;20419;-75
2022/05/21 07:22:41;;;;;;;13.10;3.20;;;;;;;;;;5072425;28;20403;-75
2022/05/21 07:25:07;;;;;;;9.43;3.30;;;;;;;;;;5071954;28;20412;-76
2022/05/21 07:27:33;;;;;;;9.30;3.83;;;;;;;;;;5072218;28;20517;-76
2022/05/21 07:29:59;;;;;;;7.00;3.07;;;;;;;;;;5071771;28;20877;-75
2022/05/21 07:32:27;;;;;;;6.27;3.23;;;;;;;;;;5072105;28;20450;-75
2022/05/21 07:34:56;;;;;;;9.70;2.90;;;;;;;;;;5071743;28;20837;-77
2022/05/21 07:37:22;;;;;;;12.80;4.63;;;;;;;;;;5071671;28;20408;-75
2022/05/21 07:39:48;;;;;;;7.77;3.50;;;;;;;;;;5070915;28;20417;-76
2022/05/21 07:42:14;;;;;;;11.40;3.23;;;;;;;;;;5072173;28;20444;-77
2022/05/21 07:44:40;;;;;;;9.80;3.47;;;;;;;;;;5089657;28;20416;-76
2022/05/21 07:47:06;;;;;;;8.87;3.27;;;;;;;;;;5075754;28;20976;-76
2022/05/21 07:49:32;;;;;;;9.37;4.17;;;;;;;;;;5075882;28;20462;-75
2022/05/21 07:51:59;;;;;;;7.50;3.67;;;;;;;;;;5075666;28;20408;-77
2022/05/21 07:54:25;;;;;;;5.97;3.30;;;;;;;;;;5075652;28;20398;-78
2022/05/21 07:56:51;;;;;;;7.00;3.20;;;;;;;;;;5091581;28;20423;-80
2022/05/21 07:59:17;;;;;;;5.57;2.97;;;;;;;;;;5076020;28;20458;-76
2022/05/21 08:01:43;;;;;;;11.30;4.03;;;;;;;;;;5075910;28;20457;-76
2022/05/21 08:04:09;;;;;;;8.90;3.07;;;;;;;;;;5075308;28;20441;-75
2022/05/21 08:06:35;;;;;;;6.40;2.90;;;;;;;;;;5091236;28;20771;-77
2022/05/21 08:09:02;;;;;;;7.40;3.30;;;;;;;;;;5078410;28;20441;-75
2022/05/21 08:11:28;;;;;;;12.37;3.87;;;;;;;;;;5094269;28;20427;-75
2022/05/21 08:13:54;;;;;;;6.10;2.83;;;;;;;;;;5081776;28;20413;-77
2022/05/21 08:16:22;;;;;;;6.30;2.70;;;;;;;;;;5075464;28;20784;-77
2022/05/21 08:18:48;;;;;;;13.50;3.10;;;;;;;;;;5075221;28;20398;-77
2022/05/21 08:21:15;;;;;;;9.33;3.00;;;;;;;;;;5075436;28;20390;-77
2022/05/21 08:29:10;;;;;;;5.47;2.63;;;;;;;;;;5075590;28;20460;-76
2022/05/21 08:31:36;;;;;;;5.00;2.50;;;;;;;;;;5075340;28;20402;-75
2022/05/21 08:34:02;;;;;;;17.70;3.50;;;;;;;;;;5074693;28;20781;-75
2022/05/21 08:36:28;;;;;;;5.17;2.87;;;;;;;;;;5075250;28;20378;-76
2022/05/21 08:38:54;;;;;;;7.30;2.83;;;;;;;;;;5075539;28;20723;-77
2022/05/21 08:41:25;;;;;;;7.80;3.30;;;;;;;;;;5075215;28;20411;-75
2022/05/21 08:44:05;;;;;;;6.03;2.13;;;;;;;;;;5074772;28;20427;-78
2022/05/21 08:46:31;;;;;;;6.93;2.60;;;;;;;;;;5075246;28;20382;-74
2022/05/21 08:48:59;;;;;;;13.03;3.17;;;;;;;;;;5072682;28;20471;-78
2022/05/21 08:51:28;;;;;;;6.23;2.63;;;;;;;;;;5074919;28;20748;-78
2022/05/21 08:53:55;;;;;;;6.33;2.27;;;;;;;;;;5074123;28;20516;-78
2022/05/21 08:56:21;;;;;;;8.60;3.00;;;;;;;;;;5074727;28;20408;-77
2022/05/21 08:58:48;;;;;;;11.50;2.53;;;;;;;;;;5073568;28;20440;-78
2022/05/21 09:01:19;;;;;;;6.77;2.83;;;;;;;;;;5074853;28;20426;-76
2022/05/21 09:03:46;;;;;;;6.83;2.83;;;;;;;;;;5074834;28;20408;-75
2022/05/21 09:06:14;;;;;;;8.37;2.00;;;;;;;;;;5074571;28;20397;-77
2022/05/21 09:08:47;;;;;;;8.10;2.20;;;;;;;;;;5074579;28;20550;-76
2022/05/21 09:11:13;;;;;;;8.70;2.00;;;;;;;;;;5074633;28;20888;-78
2022/05/21 09:13:49;;;;;;;8.07;2.77;;;;;;;;;;5074155;28;20431;-75
2022/05/21 09:19:00;;;;;;;8.73;2.20;;;;;;;;;;5072917;28;20485;-77
2022/05/21 09:21:28;;;;;;;4.70;2.07;;;;;;;;;;5074211;28;20432;-77
2022/05/21 09:23:55;;;;;;;5.70;2.23;;;;;;;;;;5073923;28;20423;-77
2022/05/21 09:26:26;;;;;;;7.10;2.20;;;;;;;;;;5073911;28;20411;-78
2022/05/21 09:28:52;;;;;;;9.73;2.30;;;;;;;;;;5074118;28;20456;-77
2022/05/21 09:31:23;;;;;;;7.23;2.50;;;;;;;;;;5074074;28;20433;-76
2022/05/21 09:33:49;;;;;;;5.60;2.20;;;;;;;;;;5073935;28;20981;-79
2022/05/21 09:36:18;;;;;;;9.23;2.53;;;;;;;;;;5073076;28;20866;-76
2022/05/21 09:38:51;;;;;;;9.53;2.60;;;;;;;;;;5073830;28;20414;-75
2022/05/21 09:41:17;;;;;;;4.10;2.63;;;;;;;;;;5073709;28;20426;-77
2022/05/21 09:47:07;;;;;;;11.83;3.43;;;;;;;;;;5073841;28;20479;-77
2022/05/21 09:49:33;;;;;;;6.90;2.77;;;;;;;;;;5072675;28;20962;-75
2022/05/21 09:52:06;;;;;;;6.73;2.93;;;;;;;;;;5074273;28;20434;-77
2022/05/21 09:54:40;;;;;;;5.80;2.33;;;;;;;;;;5083310;28;20465;-79
2022/05/21 09:57:07;;;;;;;12.73;2.23;;;;;;;;;;5093916;28;20402;-75
2022/05/21 09:59:33;;;;;;;5.80;2.17;;;;;;;;;;5093740;28;20417;-78
2022/05/21 10:02:01;;;;;;;7.47;2.60;;;;;;;;;;5094130;28;20445;-76
2022/05/21 10:04:33;;;;;;;6.67;2.50;;;;;;;;;;5093666;28;20418;-75
2022/05/21 10:07:09;;;;;;;8.03;2.43;;;;;;;;;;5093223;28;20417;-74
2022/05/21 10:12:35;;;;;;;7.30;2.13;;;;;;;;;;5093786;28;20422;-76
2022/05/21 10:15:20;;;;;;;3.90;1.70;;;;;;;;;;5093205;28;20433;-75
2022/05/21 10:17:50;;;;;;;6.60;2.50;;;;;;;;;;5093803;28;20494;-76
2022/05/21 10:20:35;;;;;;;3.50;2.10;;;;;;;;;;5092034;28;20448;-75
2022/05/21 10:23:16;;;;;;;4.73;2.00;;;;;;;;;;5093130;28;20411;-75
2022/05/21 10:26:01;;;;;;;3.33;2.20;;;;;;;;;;5093271;28;20437;-76
2022/05/21 10:28:41;;;;;;;5.23;2.00;;;;;;;;;;5093302;28;20450;-77
2022/05/21 10:31:10;;;;;;;3.53;2.07;;;;;;;;;;5092657;28;20403;-77
2022/05/21 10:33:58;;;;;;;3.33;1.70;;;;;;;;;;5091774;28;20411;-76
2022/05/21 10:36:42;;;;;;;4.60;2.10;;;;;;;;;;5093723;28;20748;-76
2022/05/21 10:39:23;;;;;;;9.33;2.43;;;;;;;;;;5093276;28;20497;-74
2022/05/21 10:41:52;;;;;;;7.83;1.90;;;;;;;;;;5093353;28;20413;-77
2022/05/21 10:44:27;;;;;;;5.90;2.07;;;;;;;;;;5091629;28;20915;-76
2022/05/21 10:47:02;;;;;;;5.10;1.97;;;;;;;;;;5093299;28;20410;-74
2022/05/21 10:49:37;;;;;;;6.10;1.77;;;;;;;;;;5093501;28;20462;-76
2022/05/21 10:52:15;;;;;;;5.87;2.20;;;;;;;;;;5090391;28;20430;-75
2022/05/21 10:54:59;;;;;;;6.70;2.70;;;;;;;;;;5091594;28;20942;-74
2022/05/21 10:57:25;;;;;;;6.13;2.47;;;;;;;;;;5093312;28;20385;-75
2022/05/21 11:00:02;;;;;;;5.47;1.97;;;;;;;;;;5093080;28;20411;-75
2022/05/21 11:02:40;;;;;;;6.40;2.07;;;;;;;;;;5093205;28;20415;-77
2022/05/21 11:05:18;;;;;;;4.20;1.93;;;;;;;;;;5092518;28;20435;-75
2022/05/21 11:07:56;;;;;;;4.80;2.00;;;;;;;;;;5093049;28;20478;-76
2022/05/21 11:10:25;;;;;;;8.40;2.07;;;;;;;;;;5093194;28;20493;-76
2022/05/21 11:13:11;;;;;;;5.03;2.20;;;;;;;;;;5093137;28;20447;-78
2022/05/21 11:15:37;;;;;;;4.93;1.80;;;;;;;;;;5092731;28;20484;-76
2022/05/21 11:18:03;;;;;;;3.87;2.20;;;;;;;;;;5094616;28;20416;-75
2022/05/21 11:20:38;;;;;;;5.50;2.40;;;;;;;;;;5096978;28;20403;-76
2022/05/21 11:23:08;;;;;;;5.97;2.63;;;;;;;;;;5096050;28;20418;-77
2022/05/21 11:25:44;;;;;;;6.57;2.30;;;;;;;;;;5094840;28;20470;-75
2022/05/21 11:28:28;;;;;;;5.80;2.30;;;;;;;;;;5096432;28;20406;-75
2022/05/21 11:30:56;;;;;;;4.83;2.40;;;;;;;;;;5096803;28;20550;-76
2022/05/21 11:38:58;;;;;;;6.73;2.20;;;;;;;;;;5097248;28;20428;-77
2022/05/21 11:41:44;;;;;;;6.83;2.43;;;;;;;;;;5096486;28;20385;-74
2022/05/21 11:47:07;;;;;;;5.23;2.60;;;;;;;;;;5096611;28;20401;-76
2022/05/21 11:49:37;;;;;;;5.13;2.50;;;;;;;;;;5096373;28;20462;-76
2022/05/21 11:52:21;;;;;;;5.03;2.10;;;;;;;;;;5077401;28;20439;-76
2022/05/21 11:54:47;;;;;;;4.13;2.10;;;;;;;;;;5075233;28;20421;-73
2022/05/21 11:57:32;;;;;;;7.23;2.57;;;;;;;;;;5074837;28;20454;-76
2022/05/21 11:59:59;;;;;;;7.53;2.47;;;;;;;;;;5076129;28;20834;-76
2022/05/21 12:02:26;;;;;;;5.53;2.27;;;;;;;;;;5074763;28;20473;-74
2022/05/21 12:04:54;;;;;;;4.40;2.03;;;;;;;;;;5074101;28;20471;-75
2022/05/21 12:07:39;;;;;;;6.90;2.17;;;;;;;;;;5075879;28;20412;-76
2022/05/21 12:10:16;;;;;;;6.47;2.37;;;;;;;;;;5075693;28;20442;-75
2022/05/21 12:13:01;;;;;;;4.67;1.90;;;;;;;;;;5075774;28;20799;-75
2022/05/21 12:15:41;;;;;;;6.47;2.93;;;;;;;;;;5075610;28;20506;-74
2022/05/21 12:18:27;;;;;;;5.90;2.23;;;;;;;;;;5075691;28;20407;-75
2022/05/21 12:20:54;;;;;;;6.60;2.37;;;;;;;;;;5076464;28;20476;-77
2022/05/21 12:23:51;;;;;;;2.93;1.63;;;;;;;;;;5086038;28;20426;-76
2022/05/21 12:26:21;;;;;;;5.27;1.80;;;;;;;;;;5079486;28;20424;-73
2022/05/21 12:28:57;;;;;;;11.97;2.47;;;;;;;;;;5095207;28;20460;-75
2022/05/21 12:31:28;;;;;;;3.57;1.83;;;;;;;;;;5095558;28;20413;-76
2022/05/21 12:34:07;;;;;;;5.60;2.40;;;;;;;;;;5095001;28;20438;-75
2022/05/21 12:36:44;;;;;;;7.03;1.90;;;;;;;;;;5095501;28;20419;-75
2022/05/21 12:39:12;;;;;;;5.23;1.70;;;;;;;;;;5095166;28;20407;-76
2022/05/21 12:41:39;;;;;;;3.90;1.80;;;;;;;;;;5094255;28;20415;-76
2022/05/21 12:44:05;;;;;;;5.83;2.27;;;;;;;;;;5093432;28;20419;-75
2022/05/21 12:46:35;;;;;;;3.90;2.07;;;;;;;;;;5095120;28;20906;-75
2022/05/21 12:49:04;;;;;;;5.13;1.83;;;;;;;;;;5094118;28;20954;-75
2022/05/21 12:51:35;;;;;;;7.07;2.07;;;;;;;;;;5084889;28;20466;-75
2022/05/21 12:54:03;;;;;;;7.90;2.37;;;;;;;;;;5074177;28;20876;-78
2022/05/21 12:56:36;;;;;;;6.80;1.80;;;;;;;;;;5074679;28;20407;-75
2022/05/21 12:59:07;;;;;;;5.87;1.83;;;;;;;;;;5074383;28;20455;-75
2022/05/21 13:01:34;;;;;;;5.03;2.13;;;;;;;;;;5074987;28;20404;-78
2022/05/21 13:04:00;;;;;;;8.43;2.23;;;;;;;;;;5074154;28;20430;-74
2022/05/21 13:06:28;;;;;;;6.00;1.97;;;;;;;;;;5074615;28;20404;-74
2022/05/21 13:08:54;;;;;;;7.27;2.20;;;;;;;;;;5074662;28;20458;-74
2022/05/21 13:11:22;;;;;;;6.73;2.00;;;;;;;;;;5073508;28;20430;-75
2022/05/21 13:14:10;;;;;;;6.07;1.70;;;;;;;;;;5074170;28;20423;-75
2022/05/21 13:16:44;;;;;;;6.33;1.60;;;;;;;;;;5074547;28;20395;-73
2022/05/21 13:19:28;;;;;;;4.07;1.67;;;;;;;;;;5075499;28;20923;-76
2022/05/21 13:22:01;;;;;;;4.67;1.50;;;;;;;;;;5074302;28;20410;-75
2022/05/21 13:24:32;;;;;;;4.47;1.67;;;;;;;;;;5073868;28;20455;-73
2022/05/21 13:27:15;;;;;;;3.53;1.70;;;;;;;;;;5074249;28;20489;-73
2022/05/21 13:29:42;;;;;;;5.33;1.73;;;;;;;;;;5073642;28;20496;-75
2022/05/21 13:32:17;;;;;;;3.20;1.50;;;;;;;;;;5079392;28;20423;-75
2022/05/21 13:34:43;;;;;;;4.43;1.80;;;;;;;;;;5073625;28;20419;-73
2022/05/21 13:37:09;;;;;;;6.17;1.80;;;;;;;;;;5074090;28;20404;-74
2022/05/21 13:39:36;;;;;;;3.20;1.30;;;;;;;;;;5073924;28;20934;-75
2022/05/21 13:42:03;;;;;;;2.97;1.47;;;;;;;;;;5073793;28;20888;-75
2022/05/21 13:44:29;;;;;;;3.17;1.67;;;;;;;;;;5073309;28;20434;-73
2022/05/21 13:47:00;;;;;;;3.10;1.73;;;;;;;;;;5074039;28;20423;-75
2022/05/21 13:49:29;;;;;;;4.33;1.83;;;;;;;;;;5073625;28;20491;-74
2022/05/21 13:51:55;;;;;;;3.47;1.90;;;;;;;;;;5086226;28;20919;-75
2022/05/21 13:54:24;;;;;;;8.20;1.60;;;;;;;;;;5084880;28;20443;-74
2022/05/21 13:57:01;;;;;;;5.33;1.60;;;;;;;;;;5073293;28;20958;-74
2022/05/21 13:59:27;;;;;;;4.90;1.70;;;;;;;;;;5073370;28;20403;-75
2022/05/21 14:01:58;;;;;;;7.67;2.20;;;;;;;;;;5073788;28;20914;-73
2022/05/21 14:04:35;;;;;;;4.70;1.80;;;;;;;;;;5073064;28;20489;-74
2022/05/21 14:07:02;;;;;;;6.83;1.93;;;;;;;;;;5073747;28;20733;-75
2022/05/21 14:09:29;;;;;;;5.10;1.70;;;;;;;;;;5073618;28;20834;-74
2022/05/21 14:11:56;;;;;;;6.03;1.87;;;;;;;;;;5073487;28;20400;-73
2022/05/21 14:14:24;;;;;;;4.60;1.63;;;;;;;;;;5073035;28;20416;-75
2022/05/21 14:16:52;;;;;;;3.67;1.80;;;;;;;;;;5072105;28;20466;-76
2022/05/21 14:19:17;;;;;;;3.93;1.23;;;;;;;;;;5081769;28;20437;-75
2022/05/21 14:21:59;;;;;;;5.13;1.43;;;;;;;;;;5089370;28;20424;-77
2022/05/21 14:24:26;;;;;;;4.23;2.07;;;;;;;;;;5072804;28;20493;-75
2022/05/21 14:26:57;;;;;;;3.63;1.57;;;;;;;;;;5072832;28;20717;-76
2022/05/21 14:29:32;;;;;;;3.53;1.40;;;;;;;;;;5073138;28;20506;-76
2022/05/21 14:32:11;;;;;;;4.93;1.30;;;;;;;;;;5073018;28;20419;-74
2022/05/21 14:34:37;;;;;;;3.17;1.30;;;;;;;;;;5072635;28;20882;-75
2022/05/21 14:37:03;;;;;;;2.40;1.13;;;;;;;;;;5073137;28;20454;-76
2022/05/21 14:39:29;;;;;;;2.43;1.17;;;;;;;;;;5073183;28;20443;-73
2022/05/21 14:41:59;;;;;;;5.33;1.40;;;;;;;;;;5073197;28;20789;-74
2022/05/21 14:44:26;;;;;;;3.37;1.70;;;;;;;;;;5072757;28;20807;-76
2022/05/21 14:49:37;;;;;;;2.70;1.17;;;;;;;;;;5073519;28;20470;-74
2022/05/21 14:54:50;;;;;;;7.17;1.43;;;;;;;;;;5072477;28;20414;-74
2022/05/21 14:57:16;;;;;;;5.20;1.57;;;;;;;;;;5071880;28;20403;-76
2022/05/21 14:59:43;;;;;;;3.93;1.63;;;;;;;;;;5073109;28;20433;-75
2022/05/21 15:02:09;;;;;;;8.17;1.77;;;;;;;;;;5072900;28;20411;-73
2022/05/21 15:04:36;;;;;;;7.23;2.07;;;;;;;;;;5072591;28;20778;-76
2022/05/21 15:07:05;;;;;;;6.07;1.40;;;;;;;;;;5072855;28;20399;-73
2022/05/21 15:09:31;;;;;;;7.20;1.73;;;;;;;;;;5072812;28;20520;-75
2022/05/21 15:11:57;;;;;;;3.10;1.50;;;;;;;;;;5072828;28;20496;-76
2022/05/21 15:14:23;;;;;;;6.60;1.50;;;;;;;;;;5072309;28;20406;-74
2022/05/21 15:16:49;;;;;;;4.87;1.43;;;;;;;;;;5072767;28;20430;-76
2022/05/21 15:19:15;;;;;;;3.67;1.40;;;;;;;;;;5071864;28;20410;-75
2022/05/21 15:21:45;;;;;;;4.03;1.57;;;;;;;;;;5072794;28;20422;-75
2022/05/21 15:24:12;;;;;;;3.73;1.30;;;;;;;;;;5072167;28;20439;-74
2022/05/21 15:26:38;;;;;;;4.47;1.43;;;;;;;;;;5072447;28;20438;-74
2022/05/21 15:29:04;;;;;;;4.10;1.40;;;;;;;;;;5072251;28;20516;-74
2022/05/21 15:31:31;;;;;;;2.90;1.40;;;;;;;;;;5072406;28;20420;-76
2022/05/21 15:33:58;;;;;;;1.90;1.27;;;;;;;;;;5072365;28;20559;-74